createdAt,value
2022-10-08T00:01:05.870Z,65.16
2022-10-08T00:03:40.866Z,65.10
2022-10-08T00:06:15.777Z,65.39
2022-10-08T00:08:52.896Z,65.26
2022-10-08T00:11:29.942Z,65.02
2022-10-08T00:14:03.794Z,65.17
2022-10-08T00:16:39.242Z,65.04
2022-10-08T00:19:14.291Z,65.55
2022-10-08T00:21:50.929Z,65.57
2022-10-08T00:24:24.499Z,64.91
2022-10-08T00:26:59.503Z,65.20
2022-10-08T00:29:33.490Z,65.69
2022-10-08T00:32:07.121Z,65.95
2022-10-08T00:34:39.987Z,65.72
2022-10-08T00:37:12.825Z,65.03
2022-10-08T00:39:45.652Z,65.42
2022-10-08T00:42:19.835Z,65.86
2022-10-08T00:44:55.884Z,65.41
2022-10-08T00:47:40.992Z,65.49
2022-10-08T00:50:18.300Z,65.13
2022-10-08T00:52:55.666Z,65.34
2022-10-08T00:55:30.202Z,65.41
2022-10-08T00:58:14.887Z,65.30
2022-10-08T01:00:48.566Z,65.63
2022-10-08T01:03:21.496Z,65.29
2022-10-08T01:06:02.301Z,65.38
2022-10-08T01:08:45.578Z,65.43
2022-10-08T01:11:26.056Z,65.19
2022-10-08T01:14:06.671Z,65.03
2022-10-08T01:16:46.668Z,65.49
2022-10-08T01:19:48.616Z,65.25
2022-10-08T01:22:36.050Z,65.49
2022-10-08T01:25:34.273Z,65.63
2022-10-08T01:28:15.950Z,66.28
2022-10-08T01:30:53.271Z,66.00
2022-10-08T01:33:30.702Z,65.98
2022-10-08T01:36:07.081Z,65.65
2022-10-08T01:38:47.067Z,66.07
2022-10-08T01:41:21.740Z,66.24
2022-10-08T01:44:03.018Z,65.92
2022-10-08T01:46:41.086Z,66.24
2022-10-08T01:49:18.457Z,66.42
2022-10-08T01:51:55.981Z,65.85
2022-10-08T01:54:31.357Z,66.14
2022-10-08T01:57:06.827Z,66.10
2022-10-08T01:59:46.322Z,66.15
2022-10-08T02:02:22.726Z,66.39
2022-10-08T02:04:56.949Z,66.23
2022-10-08T02:07:32.967Z,66.09
2022-10-08T02:10:08.890Z,66.08
2022-10-08T02:12:42.717Z,65.74
2022-10-08T02:15:21.082Z,66.28
2022-10-08T02:18:00.114Z,65.94
2022-10-08T02:20:38.163Z,66.32
2022-10-08T02:23:18.280Z,66.20
2022-10-08T02:25:55.629Z,66.06
2022-10-08T02:28:38.166Z,65.82
2022-10-08T02:31:18.828Z,66.31
2022-10-08T02:34:03.960Z,66.08
2022-10-08T02:36:40.189Z,66.12
2022-10-08T02:39:15.799Z,66.03
2022-10-08T02:41:53.109Z,66.17
2022-10-08T02:44:33.121Z,66.16
2022-10-08T02:47:11.358Z,66.07
2022-10-08T02:49:51.159Z,66.07
2022-10-08T02:52:28.163Z,66.09
2022-10-08T02:55:04.100Z,66.07
2022-10-08T02:57:44.094Z,65.97
2022-10-08T03:00:17.346Z,65.88
2022-10-08T03:02:58.778Z,66.19
2022-10-08T03:05:31.971Z,66.11
2022-10-08T03:08:06.410Z,66.12
2022-10-08T03:10:42.346Z,66.24
2022-10-08T03:13:16.121Z,66.45
2022-10-08T03:15:53.832Z,66.32
2022-10-08T03:18:28.658Z,65.92
2022-10-08T03:21:01.577Z,66.54
2022-10-08T03:23:34.561Z,66.23
2022-10-08T03:26:07.590Z,66.30
2022-10-08T03:28:40.611Z,66.69
2022-10-08T03:31:13.627Z,66.11
2022-10-08T03:33:52.022Z,66.30
2022-10-08T03:36:26.319Z,66.03
2022-10-08T03:38:59.349Z,66.49
2022-10-08T03:41:32.469Z,66.19
2022-10-08T03:44:07.915Z,66.05
2022-10-08T03:46:40.863Z,65.86
2022-10-08T03:49:16.470Z,66.30
2022-10-08T03:51:49.384Z,66.33
2022-10-08T03:54:22.272Z,66.00
2022-10-08T03:56:55.218Z,65.82
2022-10-08T03:59:27.960Z,65.53
2022-10-08T04:02:00.663Z,65.97
2022-10-08T04:04:35.283Z,65.48
2022-10-08T04:07:07.953Z,65.84
2022-10-08T04:09:40.972Z,65.57
2022-10-08T04:12:13.807Z,66.29
2022-10-08T04:14:46.529Z,65.20
2022-10-08T04:17:19.414Z,65.67
2022-10-08T04:19:54.456Z,65.85
2022-10-08T04:22:27.198Z,65.19
2022-10-08T04:25:00.113Z,65.59
2022-10-08T04:27:35.736Z,65.57
2022-10-08T04:30:09.681Z,66.44
2022-10-08T04:32:42.549Z,65.74
2022-10-08T04:35:18.059Z,65.59
2022-10-08T04:37:51.088Z,65.72
2022-10-08T04:40:24.045Z,65.44
2022-10-08T04:42:56.759Z,65.57
2022-10-08T04:45:29.560Z,65.24
2022-10-08T04:48:02.451Z,65.19
2022-10-08T04:50:36.743Z,66.16
2022-10-08T04:53:09.640Z,65.67
2022-10-08T04:55:42.401Z,64.96
2022-10-08T04:58:15.214Z,64.87
2022-10-08T05:00:48.016Z,65.61
2022-10-08T05:03:20.927Z,65.63
2022-10-08T05:05:55.715Z,64.94
2022-10-08T05:08:29.533Z,65.38
2022-10-08T05:11:02.314Z,65.38
2022-10-08T05:13:35.653Z,65.53
2022-10-08T05:16:10.262Z,65.64
2022-10-08T05:18:43.409Z,65.92
2022-10-08T05:21:18.957Z,65.89
2022-10-08T05:23:55.670Z,65.45
2022-10-08T05:26:56.127Z,65.07
2022-10-08T05:29:23.502Z,65.50
2022-10-08T05:31:56.245Z,65.66
2022-10-08T05:34:29.042Z,65.39
2022-10-08T05:37:03.364Z,65.48
2022-10-08T05:39:36.385Z,65.60
2022-10-08T05:42:10.156Z,65.79
2022-10-08T05:44:45.424Z,65.65
2022-10-08T05:47:18.632Z,65.33
2022-10-08T05:49:51.418Z,64.88
2022-10-08T05:52:27.248Z,65.36
2022-10-08T05:55:00.446Z,65.50
2022-10-08T05:57:33.359Z,64.77
2022-10-08T06:00:06.913Z,65.29
2022-10-08T06:02:44.159Z,64.92
2022-10-08T06:05:17.208Z,65.16
2022-10-08T06:07:53.186Z,65.05
2022-10-08T06:10:25.964Z,64.31
2022-10-08T06:12:58.715Z,64.96
2022-10-08T06:15:31.424Z,65.23
2022-10-08T06:18:04.276Z,65.45
2022-10-08T06:20:37.625Z,64.70
2022-10-08T06:23:11.943Z,64.98
2022-10-08T06:25:44.804Z,64.95
2022-10-08T06:28:17.862Z,63.84
2022-10-08T06:30:50.481Z,63.33
2022-10-08T06:33:25.384Z,63.42
2022-10-08T06:36:03.024Z,63.43
2022-10-08T06:38:37.173Z,63.65
2022-10-08T06:41:10.453Z,63.94
2022-10-08T06:43:43.195Z,64.27
2022-10-08T06:46:16.722Z,64.03
2022-10-08T06:48:49.654Z,64.31
2022-10-08T06:51:22.347Z,64.20
2022-10-08T06:54:02.793Z,64.32
2022-10-08T06:56:40.117Z,64.87
2022-10-08T06:59:13.214Z,64.36
2022-10-08T07:01:45.823Z,64.25
2022-10-08T07:04:18.541Z,64.92
2022-10-08T07:06:51.317Z,63.95
2022-10-08T07:09:25.461Z,63.98
2022-10-08T07:11:58.152Z,63.90
2022-10-08T07:14:30.945Z,64.10
2022-10-08T07:17:03.663Z,63.96
2022-10-08T07:19:36.492Z,63.94
2022-10-08T07:22:09.460Z,64.07
2022-10-08T07:24:43.538Z,64.10
2022-10-08T07:27:17.170Z,64.10
2022-10-08T07:29:49.867Z,63.85
2022-10-08T07:32:22.712Z,64.11
2022-10-08T07:34:59.281Z,63.81
2022-10-08T07:37:32.944Z,63.40
2022-10-08T07:40:08.198Z,63.79
2022-10-08T07:42:41.342Z,63.67
2022-10-08T07:45:14.836Z,63.52
2022-10-08T07:47:47.813Z,63.22
2022-10-08T07:50:20.542Z,63.17
2022-10-08T07:52:53.375Z,63.33
2022-10-08T07:55:27.456Z,63.73
2022-10-08T07:58:00.147Z,63.55
2022-10-08T08:00:33.230Z,63.58
2022-10-08T08:03:06.096Z,63.22
2022-10-08T08:05:38.735Z,63.87
2022-10-08T08:08:12.303Z,63.01
2022-10-08T08:10:46.872Z,63.34
2022-10-08T08:13:19.687Z,63.43
2022-10-08T08:16:00.495Z,63.24
2022-10-08T08:18:35.336Z,63.52
2022-10-08T08:21:09.944Z,63.53
2022-10-08T08:23:44.810Z,63.25
2022-10-08T08:26:21.370Z,63.22
2022-10-08T08:28:55.650Z,63.49
2022-10-08T08:31:31.173Z,63.18
2022-10-08T08:34:07.027Z,63.70
2022-10-08T08:36:42.949Z,63.39
2022-10-08T08:39:17.602Z,63.66
2022-10-08T08:42:22.010Z,63.57
2022-10-08T08:44:59.607Z,63.75
2022-10-08T08:47:37.357Z,63.53
2022-10-08T08:50:20.374Z,62.82
2022-10-08T08:52:53.247Z,62.93
2022-10-08T08:55:35.458Z,62.96
2022-10-08T08:58:25.643Z,62.66
2022-10-08T09:01:05.417Z,63.00
2022-10-08T09:03:42.417Z,61.81
2022-10-08T09:06:20.054Z,62.33
2022-10-08T09:08:58.070Z,61.89
2022-10-08T09:11:31.370Z,61.87
2022-10-08T09:14:31.259Z,62.72
2022-10-08T09:17:14.662Z,63.27
2022-10-08T09:19:49.530Z,61.67
2022-10-08T09:22:23.941Z,61.80
2022-10-08T09:25:01.011Z,62.11
2022-10-08T09:27:50.307Z,62.26
2022-10-08T09:30:34.413Z,61.69
2022-10-08T09:33:29.435Z,61.46
2022-10-08T09:36:02.162Z,60.12
2022-10-08T09:38:38.058Z,60.36
2022-10-08T09:41:19.567Z,61.37
2022-10-08T09:44:16.004Z,61.38
2022-10-08T09:47:04.796Z,60.69
2022-10-08T09:49:38.826Z,61.62
2022-10-08T09:52:17.338Z,61.29
2022-10-08T09:54:54.363Z,61.78
2022-10-08T09:57:27.550Z,61.34
2022-10-08T10:00:01.494Z,61.97
2022-10-08T10:02:38.347Z,60.85
2022-10-08T10:05:23.722Z,61.64
2022-10-08T10:07:58.504Z,61.08
2022-10-08T10:10:34.742Z,61.25
2022-10-08T10:13:12.324Z,61.13
2022-10-08T10:15:52.120Z,60.37
2022-10-08T10:18:35.956Z,60.38
2022-10-08T10:21:39.613Z,60.54
2022-10-08T10:24:41.798Z,59.30
2022-10-08T10:27:19.532Z,59.49
2022-10-08T10:30:00.737Z,60.47
2022-10-08T10:32:38.862Z,60.46
2022-10-08T10:35:21.123Z,60.11
2022-10-08T10:38:02.564Z,59.85
2022-10-08T10:40:40.684Z,60.39
2022-10-08T10:43:37.095Z,59.96
2022-10-08T10:46:24.215Z,60.02
2022-10-08T10:48:57.610Z,59.00
2022-10-08T10:51:49.336Z,59.23
2022-10-08T10:54:41.171Z,59.00
2022-10-08T10:57:25.142Z,59.67
2022-10-08T11:00:06.001Z,59.39
2022-10-08T11:02:47.182Z,59.95
2022-10-08T11:05:24.670Z,59.80
2022-10-08T11:08:19.361Z,59.45
2022-10-08T11:11:07.100Z,59.42
2022-10-08T11:13:52.919Z,59.53
2022-10-08T11:16:36.718Z,59.31
2022-10-08T11:19:22.112Z,58.98
2022-10-08T11:22:04.481Z,59.47
2022-10-08T11:24:52.899Z,59.31
2022-10-08T11:27:37.854Z,58.29
2022-10-08T11:30:14.479Z,59.21
2022-10-08T11:32:53.740Z,59.75
2022-10-08T11:35:32.312Z,59.50
2022-10-08T11:38:13.736Z,59.37
2022-10-08T11:40:50.509Z,59.20
2022-10-08T11:43:30.990Z,59.58
2022-10-08T11:46:28.776Z,59.62
2022-10-08T11:49:02.546Z,59.08
2022-10-08T11:51:38.986Z,59.70
2022-10-08T11:54:16.408Z,59.13
2022-10-08T11:56:52.938Z,58.88
2022-10-08T11:59:37.462Z,57.98
2022-10-08T12:02:24.901Z,58.06
2022-10-08T12:05:00.619Z,58.77
2022-10-08T12:07:36.817Z,58.38
2022-10-08T12:10:31.133Z,58.77
2022-10-08T12:13:31.268Z,59.24
2022-10-08T12:16:08.369Z,58.25
2022-10-08T12:18:45.491Z,58.61
2022-10-08T12:21:49.988Z,58.56
2022-10-08T12:24:53.176Z,58.50
2022-10-08T12:27:39.243Z,58.29
2022-10-08T12:30:14.177Z,58.41
2022-10-08T12:32:56.209Z,57.41
2022-10-08T12:35:32.428Z,58.28
2022-10-08T12:38:16.232Z,57.02
2022-10-08T12:40:59.164Z,58.31
2022-10-08T12:43:40.786Z,58.06
2022-10-08T12:46:25.764Z,58.39
2022-10-08T12:49:06.072Z,58.56
2022-10-08T12:51:47.695Z,57.81
2022-10-08T12:54:24.655Z,57.93
2022-10-08T12:56:58.631Z,57.40
2022-10-08T12:59:32.537Z,57.96
2022-10-08T13:02:05.441Z,57.97
2022-10-08T13:04:47.348Z,58.72
2022-10-08T13:07:26.382Z,57.33
2022-10-08T13:10:01.449Z,57.68
2022-10-08T13:12:34.259Z,56.19
2022-10-08T13:15:09.192Z,58.14
2022-10-08T13:17:41.979Z,57.43
2022-10-08T13:20:19.970Z,57.45
2022-10-08T13:22:53.163Z,57.88
2022-10-08T13:25:34.500Z,57.64
2022-10-08T13:28:15.224Z,56.71
2022-10-08T13:30:48.485Z,57.43
2022-10-08T13:33:24.667Z,56.06
2022-10-08T13:36:00.938Z,57.06
2022-10-08T13:38:36.896Z,57.63
2022-10-08T13:41:23.485Z,57.27
2022-10-08T13:43:56.810Z,57.30
2022-10-08T13:46:29.511Z,56.56
2022-10-08T13:49:02.357Z,57.15
2022-10-08T13:51:36.410Z,57.42
2022-10-08T13:54:11.019Z,57.56
2022-10-08T13:56:43.714Z,56.44
2022-10-08T13:59:16.629Z,56.66
2022-10-08T14:01:49.869Z,57.28
2022-10-08T14:04:22.692Z,56.99
2022-10-08T14:06:59.155Z,56.98
2022-10-08T14:09:32.368Z,56.70
2022-10-08T14:12:05.476Z,57.08
2022-10-08T14:14:38.169Z,57.31
2022-10-08T14:17:10.821Z,57.17
2022-10-08T14:19:43.655Z,57.11
2022-10-08T14:22:18.330Z,56.49
2022-10-08T14:24:51.321Z,57.43
2022-10-08T14:27:24.048Z,57.22
2022-10-08T14:29:57.043Z,57.40
2022-10-08T14:32:29.536Z,56.13
2022-10-08T14:35:03.012Z,57.57
2022-10-08T14:37:37.054Z,57.37
2022-10-08T14:40:16.034Z,57.46
2022-10-08T14:42:49.117Z,57.59
2022-10-08T14:45:22.852Z,57.59
2022-10-08T14:47:55.767Z,57.90
2022-10-08T14:50:28.474Z,57.34
2022-10-08T14:53:02.469Z,55.91
2022-10-08T14:55:49.357Z,57.04
2022-10-08T14:58:29.218Z,56.58
2022-10-08T15:01:02.078Z,56.70
2022-10-08T15:03:34.965Z,57.90
2022-10-08T15:06:08.217Z,56.93
2022-10-08T15:08:45.153Z,56.90
2022-10-08T15:11:17.803Z,57.47
2022-10-08T15:13:50.955Z,57.04
2022-10-08T15:16:23.695Z,57.63
2022-10-08T15:18:58.112Z,57.28
2022-10-08T15:21:30.745Z,57.52
2022-10-08T15:24:07.795Z,57.63
2022-10-08T15:26:43.207Z,57.64
2022-10-08T15:29:18.868Z,57.81
2022-10-08T15:31:53.966Z,57.92
2022-10-08T15:34:28.574Z,57.77
2022-10-08T15:37:01.230Z,58.01
2022-10-08T15:39:36.134Z,58.94
2022-10-08T15:42:10.549Z,57.74
2022-10-08T15:44:46.266Z,57.63
2022-10-08T15:47:18.963Z,58.59
2022-10-08T15:49:51.870Z,57.68
2022-10-08T15:52:24.539Z,58.82
2022-10-08T15:54:58.497Z,59.14
2022-10-08T15:57:31.406Z,59.15
2022-10-08T16:00:04.448Z,58.35
2022-10-08T16:02:44.648Z,59.04
2022-10-08T16:05:17.583Z,58.28
2022-10-08T16:07:50.783Z,58.32
2022-10-08T16:10:24.897Z,58.42
2022-10-08T16:12:57.629Z,58.20
2022-10-08T16:15:30.372Z,58.17
2022-10-08T16:18:04.073Z,57.95
2022-10-08T16:20:36.862Z,60.18
2022-10-08T16:23:09.610Z,57.63
2022-10-08T16:25:45.580Z,58.74
2022-10-08T16:28:18.480Z,57.98
2022-10-08T16:30:51.218Z,58.31
2022-10-08T16:33:28.537Z,58.20
2022-10-08T16:36:03.322Z,58.78
2022-10-08T16:38:37.932Z,59.28
2022-10-08T16:41:17.095Z,58.27
2022-10-08T16:43:52.303Z,58.61
2022-10-08T16:46:27.500Z,58.31
2022-10-08T16:49:01.934Z,58.22
2022-10-08T16:51:36.867Z,58.27
2022-10-08T16:54:13.511Z,58.11
2022-10-08T16:56:48.099Z,58.68
2022-10-08T16:59:22.662Z,58.55
2022-10-08T17:01:57.502Z,58.96
2022-10-08T17:04:35.343Z,58.86
2022-10-08T17:07:09.044Z,58.91
2022-10-08T17:09:43.253Z,59.68
2022-10-08T17:12:21.823Z,59.32
2022-10-08T17:14:54.834Z,58.90
2022-10-08T17:17:29.163Z,60.07
2022-10-08T17:20:01.880Z,58.98
2022-10-08T17:22:34.664Z,58.75
2022-10-08T17:25:07.992Z,58.84
2022-10-08T17:27:43.270Z,58.63
2022-10-08T17:30:17.778Z,58.79
2022-10-08T17:32:50.569Z,58.83
2022-10-08T17:35:24.104Z,58.97
2022-10-08T17:37:56.792Z,59.09
2022-10-08T17:40:30.592Z,59.73
2022-10-08T17:43:12.431Z,59.32
2022-10-08T17:45:45.385Z,59.48
2022-10-08T17:48:18.275Z,59.88
2022-10-08T17:50:50.921Z,59.83
2022-10-08T17:53:23.770Z,60.00
2022-10-08T17:56:00.714Z,60.39
2022-10-08T17:58:35.465Z,59.94
2022-10-08T18:01:12.208Z,60.45
2022-10-08T18:03:49.959Z,60.87
2022-10-08T18:06:23.620Z,60.56
2022-10-08T18:08:57.321Z,60.83
2022-10-08T18:11:32.025Z,60.61
2022-10-08T18:14:07.261Z,60.59
2022-10-08T18:16:44.266Z,60.94
2022-10-08T18:19:20.353Z,61.54
2022-10-08T18:21:53.226Z,61.42
2022-10-08T18:24:27.054Z,61.79
2022-10-08T18:26:59.859Z,61.79
2022-10-08T18:29:33.952Z,62.01
2022-10-08T18:32:06.699Z,63.29
2022-10-08T18:37:23.957Z,62.19
2022-10-08T18:39:59.957Z,62.31
2022-10-08T18:42:32.831Z,61.96
2022-10-08T18:45:08.451Z,62.20
2022-10-08T18:47:41.273Z,62.67
2022-10-08T18:50:14.451Z,62.42
2022-10-08T18:52:50.313Z,62.60
2022-10-08T18:55:23.375Z,62.84
2022-10-08T19:01:05.148Z,62.44
2022-10-08T19:03:38.408Z,62.76
2022-10-08T19:06:11.874Z,62.84
2022-10-08T19:08:45.261Z,62.99
2022-10-08T19:11:18.988Z,62.55
2022-10-08T19:13:53.788Z,62.55
2022-10-08T19:16:28.763Z,62.70
2022-10-08T19:19:03.791Z,62.96
2022-10-08T19:21:38.737Z,62.74
2022-10-08T19:24:21.474Z,62.78
2022-10-08T19:26:56.266Z,63.16
2022-10-08T19:29:33.679Z,63.03
2022-10-08T19:32:08.180Z,63.19
2022-10-08T19:34:41.711Z,63.21
2022-10-08T19:37:15.234Z,63.15
2022-10-08T19:39:48.757Z,62.94
2022-10-08T19:42:22.574Z,63.22
2022-10-08T19:44:55.440Z,63.28
2022-10-08T19:47:29.517Z,62.82
2022-10-08T19:50:02.423Z,63.17
2022-10-08T19:52:35.558Z,63.05
2022-10-08T19:55:08.688Z,63.15
2022-10-08T19:57:41.502Z,63.30
2022-10-08T20:00:16.822Z,63.16
2022-10-08T20:02:51.723Z,63.26
2022-10-08T20:05:25.035Z,63.74
2022-10-08T20:08:00.647Z,62.90
2022-10-08T20:10:33.688Z,63.24
2022-10-08T20:13:07.057Z,63.18
2022-10-08T20:15:41.734Z,63.08
2022-10-08T20:18:16.310Z,63.00
2022-10-08T20:20:49.072Z,63.19
2022-10-08T20:23:22.101Z,63.33
2022-10-08T20:25:55.250Z,63.00
2022-10-08T20:28:28.966Z,63.30
2022-10-08T20:31:09.361Z,63.05
2022-10-08T20:33:44.622Z,63.47
2022-10-08T20:36:18.420Z,63.28
2022-10-08T20:38:52.150Z,63.59
2022-10-08T20:41:30.612Z,63.63
2022-10-08T20:44:05.989Z,63.29
2022-10-08T20:46:39.279Z,63.69
2022-10-08T20:49:14.292Z,63.48
2022-10-08T20:51:47.150Z,63.93
2022-10-08T20:54:20.692Z,63.49
2022-10-08T20:56:53.555Z,63.67
2022-10-08T20:59:26.704Z,63.47
2022-10-08T21:01:59.759Z,63.62
2022-10-08T21:04:34.094Z,63.66
2022-10-08T21:07:06.833Z,63.76
2022-10-08T21:09:40.029Z,63.83
2022-10-08T21:12:12.635Z,63.90
2022-10-08T21:14:45.368Z,63.65
2022-10-08T21:17:18.132Z,63.59
2022-10-08T21:19:52.281Z,63.43
2022-10-08T21:22:25.156Z,63.70
2022-10-08T21:24:57.881Z,63.78
2022-10-08T21:27:30.968Z,63.76
2022-10-08T21:30:03.716Z,63.53
2022-10-08T21:32:36.656Z,63.76
2022-10-08T21:35:11.140Z,63.95
2022-10-08T21:37:43.984Z,63.55
2022-10-08T21:40:16.956Z,63.53
2022-10-08T21:42:50.284Z,63.94
2022-10-08T21:45:24.024Z,63.69
2022-10-08T21:47:56.921Z,64.18
2022-10-08T21:50:35.272Z,63.82
2022-10-08T21:53:08.828Z,63.94
2022-10-08T21:55:41.812Z,63.75
2022-10-08T21:58:14.536Z,63.88
2022-10-08T22:00:47.409Z,63.79
2022-10-08T22:03:20.388Z,64.06
2022-10-08T22:05:56.965Z,63.96
2022-10-08T22:08:31.960Z,63.80
2022-10-08T22:11:06.600Z,63.98
2022-10-08T22:13:39.609Z,64.24
2022-10-08T22:16:13.341Z,64.42
2022-10-08T22:18:46.210Z,64.04
2022-10-08T22:21:23.165Z,64.02
2022-10-08T22:23:56.104Z,63.98
2022-10-08T22:26:30.988Z,63.88
2022-10-08T22:29:04.434Z,64.15
2022-10-08T22:31:38.111Z,64.04
2022-10-08T22:34:11.503Z,63.69
2022-10-08T22:36:45.996Z,64.05
2022-10-08T22:39:18.849Z,63.86
2022-10-08T22:41:51.479Z,63.74
2022-10-08T22:44:24.204Z,63.87
2022-10-08T22:46:57.258Z,63.52
2022-10-08T22:49:30.112Z,63.77
2022-10-08T22:52:04.370Z,63.96
2022-10-08T22:54:37.337Z,63.78
2022-10-08T22:57:10.189Z,63.75
2022-10-08T22:59:42.916Z,63.53
2022-10-08T23:02:15.680Z,63.59
2022-10-08T23:04:48.446Z,63.63
2022-10-08T23:07:22.833Z,63.81
2022-10-08T23:09:55.692Z,64.02
2022-10-08T23:12:28.971Z,64.04
2022-10-08T23:15:01.677Z,63.93
2022-10-08T23:17:34.615Z,64.09
2022-10-08T23:20:07.682Z,64.01
2022-10-08T23:22:41.738Z,64.10
2022-10-08T23:25:14.521Z,64.17
2022-10-08T23:27:47.419Z,64.30
2022-10-08T23:30:41.542Z,64.15
2022-10-08T23:33:14.592Z,64.50
2022-10-08T23:35:55.472Z,64.49
2022-10-08T23:38:29.743Z,64.46
2022-10-08T23:41:03.552Z,64.04
2022-10-08T23:43:37.889Z,64.09
2022-10-08T23:46:13.215Z,64.42
2022-10-08T23:48:47.146Z,64.22
2022-10-08T23:51:21.277Z,64.07
2022-10-08T23:53:56.152Z,64.59
2022-10-08T23:56:29.331Z,64.29
2022-10-08T23:59:02.145Z,64.45
